Time;durP1;ratioP1;P1;durP2;ratioP2;P2;SDS_P1;SDS_P2;PMS_P1;PMS_P2;Temp;Humidity;BMP_temperature;BMP_pressure;BME280_temperature;BME280_humidity;BME280_pressure;Samples;Min_cycle;Max_cycle;Signal;HPM_P1;HPM_P2
2021/05/05 00:02:02;;;;;;;2.30;1.30;;;;;;;8.01;60.47;99198.31;6136196;28;20626;-54
2021/05/05 00:05:22;;;;;;;3.20;1.33;;;;;;;7.98;60.77;99204.41;6129711;28;20306;-51
2021/05/05 00:08:44;;;;;;;2.67;1.63;;;;;;;8.22;59.90;99218.53;6139016;28;20238;-54
2021/05/05 00:12:06;;;;;;;9.63;2.03;;;;;;;8.08;60.53;99200.72;6099169;28;20236;-52
2021/05/05 00:15:26;;;;;;;3.63;1.40;;;;;;;7.91;60.93;99208.06;6129672;28;20227;-53
2021/05/05 00:18:46;;;;;;;4.80;1.43;;;;;;;7.78;61.31;99191.09;6133671;28;20235;-51
2021/05/05 00:22:07;;;;;;;3.90;1.40;;;;;;;7.93;61.41;99192.44;6144506;28;20223;-52
2021/05/05 00:25:29;;;;;;;4.30;1.23;;;;;;;7.80;61.91;99197.94;6139208;28;20260;-52
2021/05/05 00:28:50;;;;;;;2.10;1.50;;;;;;;8.05;61.97;99190.41;6142397;28;20247;-55
2021/05/05 00:32:10;;;;;;;3.83;1.40;;;;;;;7.73;63.25;99204.13;6116676;28;20324;-50
2021/05/05 00:35:31;;;;;;;4.60;1.60;;;;;;;7.66;63.62;99203.44;6138698;28;20978;-54
2021/05/05 00:38:51;;;;;;;5.93;2.30;;;;;;;7.54;63.31;99229.63;6141222;28;20239;-54
2021/05/05 00:42:12;;;;;;;4.40;2.00;;;;;;;7.91;63.27;99199.41;6135628;28;20278;-53
2021/05/05 00:45:35;;;;;;;4.60;1.60;;;;;;;8.05;62.31;99199.94;6134028;28;20235;-51
2021/05/05 00:48:55;;;;;;;10.63;2.83;;;;;;;8.16;62.25;99191.88;6142537;28;20609;-55
2021/05/05 00:52:16;;;;;;;5.07;1.23;;;;;;;7.77;63.13;99194.56;6139333;28;20243;-51
2021/05/05 00:55:36;;;;;;;3.77;1.53;;;;;;;7.78;63.11;99181.56;6134921;28;20231;-55
2021/05/05 00:58:58;;;;;;;8.13;2.53;;;;;;;7.91;62.75;99207.19;6139388;28;20235;-52
2021/05/05 01:02:19;;;;;;;3.20;1.67;;;;;;;7.79;62.98;99192.78;6139031;28;20234;-53
2021/05/05 01:05:41;;;;;;;5.30;1.90;;;;;;;7.66;62.91;99198.25;6137174;28;20235;-53
2021/05/05 01:09:02;;;;;;;6.83;1.67;;;;;;;7.77;62.27;99181.59;6129543;28;20238;-52
2021/05/05 01:12:23;;;;;;;3.20;1.40;;;;;;;7.68;62.62;99212.03;6132308;28;20325;-51
2021/05/05 01:15:46;;;;;;;2.73;1.10;;;;;;;7.77;61.87;99205.78;6132905;28;20873;-52
2021/05/05 01:19:08;;;;;;;2.63;0.90;;;;;;;7.65;61.94;99212.09;6136038;28;20235;-51
2021/05/05 01:22:30;;;;;;;4.00;1.47;;;;;;;7.86;61.76;99204.72;6138349;28;20227;-49
2021/05/05 01:25:51;;;;;;;6.97;2.23;;;;;;;7.80;61.88;99223.00;6138973;28;20534;-53
2021/05/05 01:29:11;;;;;;;4.17;1.53;;;;;;;7.78;61.28;99191.09;6136311;28;20239;-54
2021/05/05 01:32:32;;;;;;;5.23;2.27;;;;;;;7.93;60.85;99182.94;6133907;28;20284;-52
2021/05/05 01:35:53;;;;;;;4.00;1.33;;;;;;;7.92;60.46;99199.38;6136142;28;20231;-49
2021/05/05 01:39:18;;;;;;;1.40;0.87;;;;;;;7.67;60.88;99193.91;6137192;28;20239;-53
2021/05/05 01:42:39;;;;;;;3.23;1.33;;;;;;;7.98;60.42;99186.25;6142951;28;20752;-53
2021/05/05 01:45:59;;;;;;;3.03;1.00;;;;;;;7.98;60.40;99194.03;6139314;28;20313;-53
2021/05/05 01:49:21;;;;;;;4.47;1.53;;;;;;;7.53;61.42;99204.59;6140555;28;20239;-52
2021/05/05 01:52:42;;;;;;;3.63;1.40;;;;;;;7.68;61.46;99186.13;6139498;28;20235;-53
2021/05/05 01:56:04;;;;;;;4.97;1.50;;;;;;;7.60;62.05;99184.56;6136837;28;20239;-53
2021/05/05 01:59:24;;;;;;;3.60;2.50;;;;;;;7.59;62.06;99165.59;6137523;28;20227;-55
2021/05/05 02:02:47;;;;;;;5.77;1.20;;;;;;;7.76;61.69;99170.38;6139469;28;20242;-52
2021/05/05 02:06:17;;;;;;;3.37;1.33;;;;;;;7.82;61.36;99178.00;6136691;28;20503;-52
2021/05/05 02:09:46;;;;;;;1.93;1.27;;;;;;;7.65;62.23;99168.03;6128880;28;20325;-51
2021/05/05 02:13:08;;;;;;;3.70;1.67;;;;;;;7.64;62.47;99188.81;6134615;28;20235;-53
2021/05/05 02:16:29;;;;;;;11.97;2.03;;;;;;;7.56;62.68;99188.13;6126001;28;20594;-52
2021/05/05 02:19:50;;;;;;;5.33;1.50;;;;;;;7.57;63.11;99166.53;6134713;28;20243;-50
2021/05/05 02:23:11;;;;;;;2.70;1.87;;;;;;;7.51;63.38;99151.97;6127418;28;20300;-54
2021/05/05 02:26:32;;;;;;;4.63;1.90;;;;;;;7.38;63.78;99179.03;6134188;28;20239;-52
2021/05/05 02:29:54;;;;;;;3.30;1.67;;;;;;;7.44;63.67;99171.13;6142279;28;20247;-54
2021/05/05 02:33:23;;;;;;;5.67;1.93;;;;;;;7.45;63.78;99163.31;6142011;28;20230;-55
2021/05/05 02:36:45;;;;;;;4.57;1.70;;;;;;;7.42;63.78;99185.84;6132035;28;20315;-53
2021/05/05 02:40:09;;;;;;;2.93;1.10;;;;;;;7.21;64.15;99182.88;6151619;28;20715;-51
2021/05/05 02:43:29;;;;;;;5.90;3.20;;;;;;;7.24;64.09;99185.38;6128844;28;20610;-50
2021/05/05 02:46:51;;;;;;;3.67;2.07;;;;;;;7.38;63.50;99155.72;6130584;28;20828;-56
2021/05/05 02:50:12;;;;;;;4.40;1.70;;;;;;;7.38;63.67;99150.56;6139680;28;20239;-54
2021/05/05 02:53:33;;;;;;;4.47;1.53;;;;;;;7.43;63.77;99156.50;6133864;28;20589;-53
2021/05/05 02:56:53;;;;;;;5.03;1.57;;;;;;;7.14;64.20;99163.16;6128933;28;20238;-53
2021/05/05 03:00:14;;;;;;;4.87;1.20;;;;;;;7.34;64.02;99183.44;6129826;28;20238;-48
2021/05/05 03:03:36;;;;;;;5.67;2.07;;;;;;;7.37;63.70;99154.03;6125234;28;20231;-55
2021/05/05 03:06:56;;;;;;;3.37;1.80;;;;;;;7.63;63.24;99146.50;6142930;28;20239;-54
2021/05/05 03:10:18;;;;;;;5.07;1.83;;;;;;;7.14;64.70;99152.81;6141461;28;20632;-50
2021/05/05 03:13:39;;;;;;;4.73;2.13;;;;;;;7.42;63.82;99149.59;6138480;28;20535;-50
2021/05/05 03:17:01;;;;;;;5.03;2.07;;;;;;;7.26;63.93;99149.94;6137475;28;20597;-55
2021/05/05 03:20:23;;;;;;;6.43;2.03;;;;;;;7.44;63.27;99169.41;6140725;28;20709;-53
2021/05/05 03:23:43;;;;;;;6.97;1.67;;;;;;;7.23;64.75;99160.38;6129414;28;20235;-55
2021/05/05 03:27:04;;;;;;;3.40;1.77;;;;;;;7.25;64.51;99181.91;6141154;28;20375;-54
2021/05/05 03:30:25;;;;;;;2.83;1.67;;;;;;;7.20;64.91;99183.72;6128723;28;20266;-53
2021/05/05 03:33:45;;;;;;;4.87;1.67;;;;;;;7.10;64.43;99156.34;6123262;28;20235;-50
2021/05/05 03:37:07;;;;;;;4.47;1.27;;;;;;;7.09;64.86;99155.50;6138001;28;20239;-55
2021/05/05 03:40:28;;;;;;;4.10;1.87;;;;;;;7.04;64.83;99154.75;6138071;28;20231;-53
2021/05/05 03:43:48;;;;;;;4.00;1.33;;;;;;;7.25;64.57;99162.91;6131484;28;20232;-53
2021/05/05 03:47:09;;;;;;;5.03;1.73;;;;;;;7.07;64.74;99146.03;6134888;28;20231;-52
2021/05/05 03:50:29;;;;;;;4.90;1.87;;;;;;;7.10;64.79;99156.34;6137267;28;20715;-52
2021/05/05 03:53:51;;;;;;;2.20;1.20;;;;;;;7.19;64.44;99153.56;6127049;28;20243;-52
2021/05/05 03:57:12;;;;;;;3.00;1.33;;;;;;;7.28;64.30;99149.91;6135222;28;20238;-53
2021/05/05 04:00:32;;;;;;;4.47;1.63;;;;;;;7.15;65.03;99151.06;6134701;28;23735;-55
2021/05/05 04:03:53;;;;;;;4.97;1.97;;;;;;;7.54;63.34;99146.75;6138820;28;20246;-55
2021/05/05 04:07:14;;;;;;;5.73;2.03;;;;;;;7.19;64.41;99178.56;6139061;28;20231;-53
2021/05/05 04:10:35;;;;;;;3.07;1.53;;;;;;;7.12;65.01;99170.09;6142961;28;20276;-52
2021/05/05 04:13:55;;;;;;;4.70;1.60;;;;;;;7.06;65.57;99144.34;6139172;28;20231;-53
2021/05/05 04:17:16;;;;;;;10.33;2.23;;;;;;;6.91;67.18;99161.03;6138884;28;20239;-53
2021/05/05 04:20:36;;;;;;;4.57;2.33;;;;;;;7.39;66.26;99157.44;6133847;28;20267;-50
2021/05/05 04:23:57;;;;;;;4.67;1.93;;;;;;;7.16;66.33;99163.97;6130395;28;20265;-52
2021/05/05 04:27:19;;;;;;;5.90;2.17;;;;;;;6.94;66.80;99166.19;6142313;28;20231;-51
2021/05/05 04:30:40;;;;;;;5.93;2.47;;;;;;;7.03;66.97;99157.34;6135992;28;20231;-52
2021/05/05 04:34:00;;;;;;;4.50;1.43;;;;;;;6.84;67.57;99165.50;6141507;28;20223;-52
2021/05/05 04:37:21;;;;;;;6.47;1.93;;;;;;;6.77;67.34;99184.63;6147086;28;20231;-55
2021/05/05 04:40:41;;;;;;;6.83;2.00;;;;;;;6.79;67.36;99162.16;6137256;28;20254;-54
2021/05/05 04:44:03;;;;;;;10.63;2.00;;;;;;;6.84;66.79;99175.84;6138172;28;20239;-52
2021/05/05 04:47:23;;;;;;;7.50;1.93;;;;;;;6.83;66.64;99202.59;6142162;28;20227;-52
2021/05/05 04:50:44;;;;;;;6.97;1.80;;;;;;;7.05;66.97;99171.94;6136371;28;20227;-52
2021/05/05 04:54:06;;;;;;;3.20;1.63;;;;;;;6.70;67.84;99175.25;6135159;28;20239;-52
2021/05/05 04:57:27;;;;;;;6.63;1.73;;;;;;;6.67;67.97;99177.94;6137001;28;20239;-49
2021/05/05 05:00:48;;;;;;;4.40;2.17;;;;;;;6.80;67.59;99179.38;6125935;28;20231;-52
2021/05/05 05:04:09;;;;;;;2.83;1.73;;;;;;;6.87;67.19;99188.72;6135072;28;20581;-52
2021/05/05 05:07:30;;;;;;;8.33;2.27;;;;;;;7.15;66.61;99182.97;6136402;28;20227;-54
2021/05/05 05:10:50;;;;;;;3.13;1.50;;;;;;;7.00;66.25;99193.63;6131252;28;20239;-53
2021/05/05 05:14:10;;;;;;;4.90;1.87;;;;;;;6.97;66.13;99191.13;6142087;28;20609;-50
2021/05/05 05:17:32;;;;;;;5.00;1.40;;;;;;;7.01;65.78;99177.25;6138781;28;20246;-49
2021/05/05 05:20:52;;;;;;;5.17;1.77;;;;;;;7.07;65.28;99180.53;6139989;28;20239;-55
2021/05/05 05:24:13;;;;;;;9.00;2.00;;;;;;;7.03;64.81;99165.13;6128778;28;20223;-54
2021/05/05 05:27:34;;;;;;;3.73;1.33;;;;;;;6.82;64.97;99167.25;6141916;28;20633;-53
2021/05/05 05:30:54;;;;;;;4.87;2.13;;;;;;;7.08;63.61;99171.06;6128684;28;20223;-52
2021/05/05 05:34:16;;;;;;;6.70;2.27;;;;;;;7.30;63.16;99200.75;6136974;28;20657;-50
2021/05/05 05:37:36;;;;;;;5.97;2.20;;;;;;;7.29;62.99;99177.53;6140445;28;20696;-53
2021/05/05 05:40:56;;;;;;;4.97;1.77;;;;;;;6.89;64.11;99189.53;6134850;28;20239;-51
2021/05/05 05:44:17;;;;;;;2.80;1.30;;;;;;;7.14;63.68;99203.75;6131371;28;20238;-50
2021/05/05 05:47:38;;;;;;;6.27;1.90;;;;;;;7.41;63.26;99192.78;6132978;28;20283;-51
2021/05/05 05:50:59;;;;;;;4.13;2.67;;;;;;;7.15;64.74;99185.56;6133958;28;20251;-55
2021/05/05 05:54:20;;;;;;;4.07;2.57;;;;;;;7.07;65.15;99190.88;6134985;28;20231;-56
2021/05/05 05:57:42;;;;;;;6.33;2.00;;;;;;;7.40;64.71;99187.63;6137173;28;20227;-57
2021/05/05 06:01:04;;;;;;;5.23;2.23;;;;;;;7.35;64.54;99181.69;6137466;28;20326;-57
2021/05/05 06:04:24;;;;;;;6.37;2.47;;;;;;;7.12;65.40;99184.78;6136143;28;20231;-55
2021/05/05 06:07:46;;;;;;;8.03;2.27;;;;;;;7.10;65.34;99193.44;6138138;28;20235;-52
2021/05/05 06:11:06;;;;;;;5.47;1.97;;;;;;;6.99;65.49;99230.78;6131772;28;20239;-56
2021/05/05 06:14:27;;;;;;;3.97;2.40;;;;;;;7.34;65.13;99193.78;6134307;28;20613;-53
2021/05/05 06:17:47;;;;;;;12.10;3.10;;;;;;;7.23;65.00;99193.16;6132318;28;20539;-53
2021/05/05 06:21:08;;;;;;;9.90;3.30;;;;;;;7.10;64.87;99197.75;6131163;28;20235;-56
2021/05/05 06:24:29;;;;;;;6.50;2.00;;;;;;;7.17;64.32;99188.13;6132632;28;20231;-58
2021/05/05 06:27:49;;;;;;;6.93;2.23;;;;;;;7.12;64.94;99203.75;6135062;28;20327;-55
2021/05/05 06:31:09;;;;;;;4.17;2.33;;;;;;;7.10;65.14;99213.28;6137220;28;20239;-55
2021/05/05 06:34:31;;;;;;;2.60;2.13;;;;;;;7.18;65.47;99193.28;6132590;28;20235;-52
2021/05/05 06:37:53;;;;;;;3.50;1.80;;;;;;;7.07;65.85;99228.88;6138885;28;20823;-53
2021/05/05 06:41:14;;;;;;;6.10;1.70;;;;;;;7.08;66.28;99215.06;6132414;28;20239;-55
2021/05/05 06:44:34;;;;;;;3.67;1.97;;;;;;;7.22;66.59;99218.22;6131268;28;20231;-56
2021/05/05 06:47:55;;;;;;;4.23;2.13;;;;;;;6.82;66.85;99213.81;6128305;28;20254;-53
2021/05/05 06:51:16;;;;;;;9.23;3.10;;;;;;;6.79;68.61;99242.38;6138341;28;20239;-55
2021/05/05 06:54:36;;;;;;;6.50;2.47;;;;;;;7.11;68.96;99259.00;6137930;28;20259;-53
2021/05/05 06:57:57;;;;;;;5.17;1.57;;;;;;;6.93;68.38;99228.31;6137840;28;20288;-49
2021/05/05 07:01:18;;;;;;;3.53;2.07;;;;;;;6.75;69.02;99232.09;6135180;28;20317;-57
2021/05/05 07:04:39;;;;;;;6.80;3.20;;;;;;;6.95;68.56;99255.00;6133565;28;20326;-54
2021/05/05 07:07:59;;;;;;;6.13;2.30;;;;;;;6.91;69.07;99246.44;6138430;28;20226;-54
2021/05/05 07:11:20;;;;;;;4.17;1.57;;;;;;;6.53;70.11;99257.50;6135394;28;20239;-52
2021/05/05 07:14:41;;;;;;;4.33;1.93;;;;;;;6.63;71.43;99243.50;6142754;28;20234;-52
2021/05/05 07:18:01;;;;;;;2.77;1.87;;;;;;;6.51;72.05;99257.50;6136125;28;20252;-52
2021/05/05 07:21:22;;;;;;;6.30;2.87;;;;;;;6.38;72.13;99275.00;6128807;28;20259;-54
2021/05/05 07:24:43;;;;;;;2.57;1.97;;;;;;;6.26;73.27;99278.63;6136472;28;21005;-52
2021/05/05 07:28:03;;;;;;;3.13;1.87;;;;;;;6.23;73.14;99295.91;6125395;28;20239;-55
2021/05/05 07:31:25;;;;;;;6.63;2.00;;;;;;;6.22;73.70;99292.50;6133656;28;20723;-53
2021/05/05 07:34:46;;;;;;;4.53;1.67;;;;;;;6.18;75.05;99271.84;6128756;28;20239;-53
2021/05/05 07:38:21;;;;;;;5.43;2.73;;;;;;;5.94;75.50;99289.41;6135889;28;20314;-57
2021/05/05 07:49:11;;;;;;;1.63;1.30;;;;;;;6.14;74.34;99291.72;6130157;28;20532;-57
2021/05/05 07:52:32;;;;;;;4.00;1.50;;;;;;;6.28;74.59;99294.09;6138010;28;20617;-55
2021/05/05 07:55:55;;;;;;;4.10;1.83;;;;;;;6.22;74.35;99276.97;6129695;28;20235;-55
2021/05/05 07:59:15;;;;;;;6.43;3.77;;;;;;;6.15;73.56;99297.78;6135390;28;20235;-55
2021/05/05 08:02:36;;;;;;;3.67;1.50;;;;;;;6.42;73.65;99291.31;6133368;28;20243;-53
2021/05/05 08:05:57;;;;;;;6.60;3.20;;;;;;;6.52;73.07;99292.84;6138323;28;20231;-52
2021/05/05 08:09:18;;;;;;;4.47;1.90;;;;;;;6.68;73.54;99308.97;6135554;28;20883;-53
2021/05/05 08:12:38;;;;;;;7.20;2.23;;;;;;;6.29;73.54;99306.16;6132171;28;20522;-57
2021/05/05 08:15:59;;;;;;;4.43;2.37;;;;;;;6.56;73.14;99299.69;6120006;28;20227;-50
2021/05/05 08:19:20;;;;;;;9.30;2.17;;;;;;;6.63;72.38;99296.13;6145457;28;20231;-55
2021/05/05 08:22:41;;;;;;;4.80;2.13;;;;;;;6.70;71.80;99312.38;6138835;28;20306;-53
2021/05/05 08:26:02;;;;;;;3.87;1.90;;;;;;;6.67;71.62;99294.34;6135032;28;20247;-54
2021/05/05 08:29:27;;;;;;;10.60;3.00;;;;;;;6.73;70.84;99307.16;6132786;28;20954;-53
2021/05/05 08:32:47;;;;;;;3.13;2.13;;;;;;;6.68;71.28;99319.31;6128680;28;20239;-55
2021/05/05 08:36:08;;;;;;;7.30;3.00;;;;;;;7.01;71.29;99327.38;6134885;28;20246;-53
2021/05/05 08:39:29;;;;;;;14.10;3.53;;;;;;;7.01;70.93;99335.13;6131683;28;20239;-54
2021/05/05 08:42:50;;;;;;;11.73;3.53;;;;;;;6.76;70.96;99324.34;6132191;28;20235;-53
2021/05/05 08:46:10;;;;;;;8.07;3.00;;;;;;;6.88;71.36;99319.84;6137517;28;20366;-54
2021/05/05 08:49:32;;;;;;;6.20;2.57;;;;;;;6.86;71.06;99331.94;6142240;28;20243;-54
2021/05/05 08:52:54;;;;;;;4.97;2.87;;;;;;;6.76;70.13;99317.44;6133577;28;20641;-53
2021/05/05 08:56:16;;;;;;;8.33;3.53;;;;;;;7.08;70.03;99328.97;6132513;28;20227;-52
2021/05/05 08:59:38;;;;;;;5.73;2.47;;;;;;;7.05;70.52;99341.97;6139655;28;20623;-55
2021/05/05 09:02:59;;;;;;;7.97;2.87;;;;;;;6.81;71.20;99340.66;6140401;28;20239;-54
2021/05/05 09:06:45;;;;;;;5.03;3.07;;;;;;;7.11;70.72;99326.31;6140633;28;20326;-53
2021/05/05 09:10:08;;;;;;;6.10;2.63;;;;;;;7.07;70.63;99355.72;6141061;28;22055;-54
2021/05/05 09:13:47;;;;;;;8.43;3.37;;;;;;;6.99;70.46;99360.19;6142582;28;20280;-53
2021/05/05 09:17:16;;;;;;;10.27;3.40;;;;;;;7.25;71.97;99355.41;6140799;28;20302;-51
2021/05/05 09:20:37;;;;;;;9.87;3.60;;;;;;;8.03;69.32;99378.88;6139963;28;20656;-56
2021/05/05 09:24:21;;;;;;;6.50;3.37;;;;;;;7.19;72.00;99368.47;6135696;28;20239;-54
2021/05/05 09:27:42;;;;;;;7.27;2.93;;;;;;;7.09;72.05;99366.91;6139054;28;20231;-54
2021/05/05 09:31:10;;;;;;;11.50;3.07;;;;;;;7.00;71.30;99377.41;6137303;28;20239;-52
2021/05/05 09:34:30;;;;;;;4.30;2.97;;;;;;;7.15;71.02;99381.47;6140089;28;20249;-55
2021/05/05 09:38:00;;;;;;;8.80;2.30;;;;;;;6.96;71.39;99381.81;6138634;28;20235;-52
2021/05/05 09:41:21;;;;;;;3.77;2.10;;;;;;;7.16;70.44;99373.69;6132421;28;20258;-54
2021/05/05 09:44:52;;;;;;;8.80;1.90;;;;;;;7.30;69.66;99407.09;6141250;28;20738;-54
2021/05/05 09:48:21;;;;;;;4.00;1.90;;;;;;;7.13;70.89;99384.09;6143380;28;20242;-54
2021/05/05 09:51:47;;;;;;;2.47;1.50;;;;;;;7.04;71.00;99392.03;6132331;28;20238;-56
2021/05/05 09:55:08;;;;;;;8.60;1.97;;;;;;;6.85;70.26;99384.56;6117924;28;20247;-52
2021/05/05 09:58:31;;;;;;;5.80;3.20;;;;;;;6.78;70.52;99407.97;6136892;28;20266;-57
2021/05/05 10:02:01;;;;;;;5.00;2.37;;;;;;;6.82;68.98;99467.41;6144659;28;20262;-56
2021/05/05 10:05:27;;;;;;;8.53;3.60;;;;;;;7.60;68.74;99392.72;6138730;28;20656;-49
2021/05/05 10:08:50;;;;;;;4.67;2.60;;;;;;;7.35;68.84;99399.22;6139494;28;20314;-55
2021/05/05 10:12:11;;;;;;;3.93;2.60;;;;;;;7.50;68.30;99404.13;6135959;28;20235;-53
2021/05/05 10:15:33;;;;;;;7.43;2.40;;;;;;;7.46;68.24;99398.16;6135911;28;20239;-56
2021/05/05 10:18:54;;;;;;;4.93;2.43;;;;;;;7.59;67.59;99426.44;6135701;28;20223;-55
2021/05/05 10:22:17;;;;;;;7.87;2.53;;;;;;;7.51;67.34;99431.75;6138350;28;20224;-52
2021/05/05 10:25:41;;;;;;;10.47;3.53;;;;;;;8.03;66.47;99397.03;6132243;28;20257;-56
2021/05/05 10:29:01;;;;;;;7.90;2.20;;;;;;;8.24;65.57;99402.63;6143193;28;20314;-54
2021/05/05 10:32:23;;;;;;;8.20;3.77;;;;;;;8.04;65.87;99413.41;6138358;28;20255;-55
2021/05/05 10:35:43;;;;;;;5.27;1.90;;;;;;;7.84;65.45;99416.44;6138531;28;20239;-54
2021/05/05 10:39:34;;;;;;;7.27;2.10;;;;;;;7.68;66.49;99434.88;6143090;28;20243;-57
2021/05/05 10:42:56;;;;;;;4.07;2.00;;;;;;;7.92;66.09;99431.84;6130664;28;20625;-54
2021/05/05 10:46:28;;;;;;;1.67;1.43;;;;;;;8.00;65.77;99415.22;6135743;28;20235;-56
2021/05/05 10:50:16;;;;;;;8.07;2.43;;;;;;;8.01;65.28;99431.66;6127878;28;20239;-55
2021/05/05 10:53:51;;;;;;;3.87;1.53;;;;;;;8.41;64.10;99426.50;6134943;28;20327;-57
2021/05/05 10:57:13;;;;;;;5.30;2.43;;;;;;;8.47;63.88;99404.72;6137627;28;20235;-56
2021/05/05 11:00:48;;;;;;;6.73;2.27;;;;;;;8.68;63.18;99408.56;6132111;28;20231;-53
2021/05/05 11:04:13;;;;;;;3.17;2.23;;;;;;;8.90;62.32;99423.63;6137258;28;20231;-55
2021/05/05 11:07:47;;;;;;;5.23;2.13;;;;;;;8.75;63.67;99393.72;6140705;28;20534;-56
2021/05/05 11:11:09;;;;;;;5.60;1.60;;;;;;;8.02;66.80;99438.53;6139866;28;20597;-57
2021/05/05 11:14:46;;;;;;;5.13;2.00;;;;;;;7.87;68.62;99450.06;6131097;28;20239;-55
2021/05/05 11:18:40;;;;;;;4.87;2.00;;;;;;;7.94;68.89;99441.28;6137169;28;20291;-52
2021/05/05 11:22:00;;;;;;;4.50;3.73;;;;;;;7.74;69.94;99452.03;6116798;28;20605;-56
2021/05/05 11:25:25;;;;;;;2.87;1.50;;;;;;;7.67;68.98;99484.97;6150555;28;20230;-56
2021/05/05 11:28:57;;;;;;;1.87;1.47;;;;;;;7.64;70.74;99474.69;6138189;28;20235;-53
2021/05/05 11:32:27;;;;;;;2.73;1.60;;;;;;;7.26;72.27;99499.50;6138695;28;20597;-54
2021/05/05 11:35:48;;;;;;;3.70;1.50;;;;;;;7.35;74.91;99477.81;6133629;28;20254;-55
2021/05/05 11:39:20;;;;;;;4.43;1.70;;;;;;;7.25;75.62;99497.81;6136242;28;20254;-56
2021/05/05 11:42:40;;;;;;;2.07;1.63;;;;;;;7.10;75.81;99495.47;6139126;28;20231;-56
2021/05/05 11:46:04;;;;;;;2.13;1.57;;;;;;;7.42;74.83;99473.34;6129263;28;20223;-53
2021/05/05 11:49:31;;;;;;;1.77;1.10;;;;;;;7.44;73.16;99507.84;6145257;28;20299;-55
2021/05/05 11:52:54;;;;;;;4.47;2.53;;;;;;;7.76;71.70;99535.81;6139108;28;20231;-56
2021/05/05 11:56:17;;;;;;;3.03;1.60;;;;;;;8.04;70.34;99486.00;6131661;28;20238;-56
2021/05/05 11:59:38;;;;;;;1.63;1.23;;;;;;;8.12;70.13;99468.56;6132188;28;20247;-54
2021/05/05 12:03:00;;;;;;;3.10;1.60;;;;;;;7.48;72.14;99478.41;6134589;28;20928;-53
2021/05/05 12:06:22;;;;;;;2.17;1.33;;;;;;;7.42;73.32;99476.78;6136886;28;21642;-54
2021/05/05 12:09:42;;;;;;;2.20;1.40;;;;;;;7.64;74.15;99499.75;6134462;28;20255;-56
2021/05/05 12:13:07;;;;;;;4.07;1.80;;;;;;;7.73;75.38;99529.81;6138239;28;20261;-54
2021/05/05 12:16:30;;;;;;;2.73;1.77;;;;;;;7.84;75.15;99533.06;6140321;28;20266;-55
2021/05/05 12:20:06;;;;;;;3.20;1.60;;;;;;;7.74;74.95;99534.13;6140532;28;20247;-55
2021/05/05 12:23:34;;;;;;;4.37;1.77;;;;;;;7.12;77.36;99537.72;6144705;28;20368;-52
2021/05/05 12:27:07;;;;;;;3.80;1.90;;;;;;;6.79;76.09;99550.28;6138823;28;20254;-55
2021/05/05 12:30:47;;;;;;;1.67;0.90;;;;;;;6.59;78.20;99558.31;6140002;28;20622;-54
2021/05/05 12:34:08;;;;;;;3.70;1.23;;;;;;;6.62;79.75;99562.59;6141851;28;20318;-50
2021/05/05 12:37:29;;;;;;;4.33;1.10;;;;;;;7.48;74.80;99576.84;6134292;28;20239;-57
2021/05/05 12:41:00;;;;;;;4.27;1.00;;;;;;;7.76;74.90;99558.28;6140573;28;20239;-55
2021/05/05 12:44:31;;;;;;;1.90;1.47;;;;;;;7.78;75.38;99551.34;6142576;28;20242;-53
2021/05/05 12:48:00;;;;;;;1.63;0.97;;;;;;;7.71;73.67;99552.31;6143450;28;20242;-55
2021/05/05 12:51:23;;;;;;;3.20;1.90;;;;;;;8.01;73.80;99572.50;6143059;28;20299;-56
2021/05/05 12:54:44;;;;;;;2.70;1.70;;;;;;;8.43;72.09;99546.66;6139452;28;20239;-52
2021/05/05 12:58:10;;;;;;;4.00;2.03;;;;;;;8.22;71.47;99550.50;6141418;28;20223;-55
2021/05/05 13:01:31;;;;;;;1.90;1.00;;;;;;;7.93;71.82;99564.00;6137247;28;20219;-53
2021/05/05 13:04:53;;;;;;;3.10;1.97;;;;;;;8.00;73.32;99583.75;6138355;28;20243;-56
2021/05/05 13:08:14;;;;;;;3.57;1.70;;;;;;;7.92;73.86;99583.03;6138648;28;20503;-57
2021/05/05 13:11:37;;;;;;;4.17;1.23;;;;;;;8.11;72.92;99582.72;6141431;28;20266;-55
2021/05/05 13:15:07;;;;;;;5.90;2.17;;;;;;;8.30;72.19;99581.47;6138687;28;20614;-50
2021/05/05 13:18:50;;;;;;;2.63;1.63;;;;;;;8.51;70.62;99598.41;6140367;28;20251;-56
2021/05/05 13:29:50;;;;;;;8.53;2.40;;;;;;;8.36;70.30;99596.06;6111315;28;20275;-53
2021/05/05 13:33:19;;;;;;;5.23;2.17;;;;;;;8.31;71.13;99609.09;6142798;28;20235;-53
2021/05/05 13:36:52;;;;;;;3.80;1.93;;;;;;;8.20;73.38;99619.69;6137375;28;20656;-54
2021/05/05 13:40:13;;;;;;;6.20;2.50;;;;;;;7.87;74.24;99653.13;6136471;28;20246;-55
2021/05/05 13:43:41;;;;;;;4.37;1.50;;;;;;;7.97;72.77;99633.06;6141671;28;20895;-55
2021/05/05 13:47:08;;;;;;;3.97;1.87;;;;;;;8.12;72.33;99647.47;6138579;28;20233;-57
2021/05/05 13:50:29;;;;;;;6.03;2.20;;;;;;;7.88;72.61;99651.38;6140453;28;20314;-57
2021/05/05 13:53:51;;;;;;;6.77;2.00;;;;;;;8.37;71.15;99649.66;6133402;28;20933;-57
2021/05/05 13:57:12;;;;;;;4.70;1.50;;;;;;;8.28;70.76;99642.91;6135982;28;20633;-51
2021/05/05 14:00:32;;;;;;;5.20;2.67;;;;;;;8.18;71.60;99667.28;6135911;28;20239;-57
2021/05/05 14:03:53;;;;;;;6.70;2.00;;;;;;;8.37;70.76;99655.69;6121738;28;20234;-56
2021/05/05 14:07:14;;;;;;;7.03;2.43;;;;;;;8.59;69.72;99673.50;6136424;28;20228;-56
2021/05/05 14:10:35;;;;;;;6.60;2.07;;;;;;;8.34;70.66;99686.88;6135955;28;20243;-55
2021/05/05 14:13:55;;;;;;;6.17;2.53;;;;;;;8.06;70.63;99679.59;6138339;28;20326;-56
2021/05/05 14:17:17;;;;;;;11.03;2.60;;;;;;;8.37;70.37;99681.63;6127941;28;20235;-56
2021/05/05 14:20:38;;;;;;;8.23;2.07;;;;;;;8.06;71.71;99695.16;6132536;28;21183;-54
2021/05/05 14:24:00;;;;;;;7.20;2.80;;;;;;;8.31;72.03;99714.63;6141630;28;20235;-56
2021/05/05 14:27:20;;;;;;;6.93;2.07;;;;;;;8.26;70.34;99733.72;6132921;28;20243;-53
2021/05/05 14:30:41;;;;;;;5.30;2.43;;;;;;;8.60;69.63;99738.31;6137637;28;20752;-54
2021/05/05 14:34:02;;;;;;;6.93;2.40;;;;;;;8.41;68.79;99722.25;6135909;28;20260;-55
2021/05/05 14:37:24;;;;;;;8.13;2.10;;;;;;;8.82;67.10;99709.38;6135621;28;20254;-54
2021/05/05 14:40:47;;;;;;;6.63;2.73;;;;;;;9.36;65.99;99722.09;6137326;28;20227;-54
2021/05/05 14:44:10;;;;;;;4.87;1.80;;;;;;;9.02;65.35;99704.66;6131138;28;20735;-57
2021/05/05 14:47:57;;;;;;;5.17;1.80;;;;;;;8.91;65.08;99713.53;6134591;28;20566;-57
2021/05/05 14:51:18;;;;;;;3.97;1.83;;;;;;;8.87;64.47;99731.75;6139184;28;20235;-54
2021/05/05 14:54:39;;;;;;;6.27;2.40;;;;;;;9.18;64.48;99731.16;6136877;28;20235;-54
2021/05/05 14:58:06;;;;;;;7.10;3.80;;;;;;;9.34;62.55;99751.63;6133248;28;20242;-54
2021/05/05 15:01:27;;;;;;;4.80;2.23;;;;;;;9.37;62.42;99751.56;6138195;28;20804;-56
2021/05/05 15:04:47;;;;;;;6.30;1.87;;;;;;;9.03;62.26;99736.66;6142536;28;20298;-56
2021/05/05 15:08:11;;;;;;;4.97;1.87;;;;;;;8.74;64.57;99750.19;6135357;28;20629;-55
2021/05/05 15:12:08;;;;;;;6.00;1.67;;;;;;;8.80;65.28;99787.31;6132310;28;20578;-54
2021/05/05 15:30:14;;;;;;;11.83;3.50;;;;;;;9.05;64.85;99802.41;6132308;28;20338;-56
2021/05/05 15:34:09;;;;;;;5.37;2.60;;;;;;;8.94;65.71;99806.97;6135104;28;20227;-53
2021/05/05 15:37:35;;;;;;;3.57;2.10;;;;;;;8.71;67.10;99839.38;6129947;28;20238;-51
2021/05/05 15:41:00;;;;;;;6.13;2.47;;;;;;;8.55;67.31;99793.78;6137471;28;20234;-57
2021/05/05 15:44:32;;;;;;;5.73;2.33;;;;;;;8.52;69.50;99827.59;6134674;28;20256;-57
2021/05/05 15:47:54;;;;;;;4.67;2.20;;;;;;;8.55;67.68;99850.88;6133806;28;20238;-54
2021/05/05 15:51:15;;;;;;;9.60;2.13;;;;;;;8.39;69.05;99858.88;6130601;28;20230;-55
2021/05/05 15:54:36;;;;;;;6.90;2.50;;;;;;;8.43;68.79;99865.78;6146175;28;20235;-52
2021/05/05 15:58:01;;;;;;;7.87;2.60;;;;;;;8.38;69.33;99888.31;6133668;28;20234;-56
2021/05/05 16:01:28;;;;;;;5.97;2.70;;;;;;;8.23;69.31;99889.38;6137627;28;20231;-52
2021/05/05 16:05:05;;;;;;;9.67;2.93;;;;;;;8.28;69.25;99882.41;6145263;28;20520;-50
2021/05/05 16:12:41;;;;;;;11.73;3.03;;;;;;;7.89;70.98;99878.63;6133873;28;20247;-53
2021/05/05 16:16:01;;;;;;;8.27;3.20;;;;;;;7.46;72.00;99890.38;6133831;28;20329;-53
2021/05/05 16:19:26;;;;;;;9.73;4.23;;;;;;;7.32;73.66;99906.91;6144899;28;20227;-56
2021/05/05 16:22:51;;;;;;;7.30;2.73;;;;;;;7.51;74.09;99917.94;6131762;28;20507;-55
2021/05/05 16:26:21;;;;;;;5.60;2.50;;;;;;;7.56;73.79;99953.31;6141329;28;20313;-55
2021/05/05 16:29:57;;;;;;;6.50;1.77;;;;;;;7.13;73.26;99937.31;6133781;28;20236;-54
2021/05/05 16:47:55;;;;;;;8.87;3.00;;;;;;;8.40;68.85;99948.81;6132866;28;20246;-55
2021/05/05 16:51:29;;;;;;;17.03;4.80;;;;;;;8.14;69.99;99950.88;6143902;28;20231;-53
2021/05/05 16:54:50;;;;;;;19.53;4.67;;;;;;;8.02;69.33;99942.38;6140956;28;20247;-55
2021/05/05 16:58:21;;;;;;;13.40;5.10;;;;;;;8.37;68.10;99959.22;6134244;28;20240;-56